Walla Walla Regional Airport Walla Walla US
ICAO: KALW
IATA: ALW
Category: Medium
Scheduled Services: Yes

Elevation: 1194 ft
TransAlt. 18000 ft.

Airport Communications:
CHINOOK APP/DEP:133.15
ASOS:135.875
CTAF:118.5
GND:121.6
SEATTLE RDO:122.3
TWR:118.5

KALW Zoom In..

If you have problems with the map follow the link
https://www.worldairports.se/pages/airport.php?
ICAO=KALW

Runways:

(A) RW 02 length 6527 ft width 150 ft
---- / hdg 16

(B) RW 07 length 4486 ft width 150 ft
---- / hdg 70

(C) RW 16 length 5948 ft width 150 ft
---- / hdg 160

(D) RW 20 length 6527 ft width 150 ft
ILS 111.70 / hdg 196

(E) RW 25 length 4486 ft width 150 ft
---- / hdg 250

(F) RW 34 length 5948 ft width 150 ft
---- / hdg 340

Location; KALW
Day. 12 / Time. 09.53 Zulu
* Altimeter: 29.91
* Temperature: 03° c. 37.4°f.
* Wind from: 150° Speed 04 kn.
Dewpoint: 02° c.
Visibility: 10 Statute Miles.
Clouds: Overcast 3800 ft.

KALW 120953Z AUTO 15004KT 10SM OVC038 03/02 A2991 RMK AO2 RAE22 SLP137 P0002 T00280022


Wind From 150°
Speed 04 kn.

 
 
jpsmedia worldairports.se 2019   terms of use